sensor_id;sensor_type;location;lat;lon;timestamp;P1;durP1;ratioP1;P2;durP2;ratioP2
5795;SDS011;2924;51.458;7.046;2022-10-16T00:00:37;4.67;;;2.37;;
5795;SDS011;2924;51.458;7.046;2022-10-16T00:03:04;7.87;;;2.80;;
5795;SDS011;2924;51.458;7.046;2022-10-16T00:05:30;2.10;;;2.00;;
5795;SDS011;2924;51.458;7.046;2022-10-16T00:07:57;4.00;;;2.20;;
5795;SDS011;2924;51.458;7.046;2022-10-16T00:10:23;4.43;;;2.00;;
5795;SDS011;2924;51.458;7.046;2022-10-16T00:12:49;7.93;;;2.47;;
5795;SDS011;2924;51.458;7.046;2022-10-16T00:15:14;7.83;;;2.87;;
5795;SDS011;2924;51.458;7.046;2022-10-16T00:17:40;14.23;;;2.67;;
5795;SDS011;2924;51.458;7.046;2022-10-16T00:20:06;4.53;;;2.27;;
5795;SDS011;2924;51.458;7.046;2022-10-16T00:22:33;5.93;;;2.20;;
5795;SDS011;2924;51.458;7.046;2022-10-16T00:24:58;4.07;;;3.03;;
5795;SDS011;2924;51.458;7.046;2022-10-16T00:27:24;4.57;;;2.33;;
5795;SDS011;2924;51.458;7.046;2022-10-16T00:29:50;6.23;;;2.90;;
5795;SDS011;2924;51.458;7.046;2022-10-16T00:32:17;2.50;;;2.00;;
5795;SDS011;2924;51.458;7.046;2022-10-16T00:34:43;4.67;;;2.13;;
5795;SDS011;2924;51.458;7.046;2022-10-16T00:37:09;4.30;;;2.30;;
5795;SDS011;2924;51.458;7.046;2022-10-16T00:39:35;1.63;;;1.53;;
5795;SDS011;2924;51.458;7.046;2022-10-16T00:42:00;4.90;;;1.77;;
5795;SDS011;2924;51.458;7.046;2022-10-16T00:47:10;4.10;;;1.90;;
5795;SDS011;2924;51.458;7.046;2022-10-16T00:49:46;1.80;;;1.50;;
5795;SDS011;2924;51.458;7.046;2022-10-16T00:52:14;5.50;;;1.67;;
5795;SDS011;2924;51.458;7.046;2022-10-16T00:54:39;7.20;;;1.70;;
5795;SDS011;2924;51.458;7.046;2022-10-16T00:57:06;3.80;;;1.80;;
5795;SDS011;2924;51.458;7.046;2022-10-16T00:59:35;3.50;;;1.33;;
5795;SDS011;2924;51.458;7.046;2022-10-16T01:02:03;5.00;;;1.23;;
5795;SDS011;2924;51.458;7.046;2022-10-16T01:04:32;6.50;;;2.00;;
5795;SDS011;2924;51.458;7.046;2022-10-16T01:07:16;3.30;;;1.13;;
5795;SDS011;2924;51.458;7.046;2022-10-16T01:10:14;1.93;;;1.43;;
5795;SDS011;2924;51.458;7.046;2022-10-16T01:13:06;3.13;;;1.40;;
5795;SDS011;2924;51.458;7.046;2022-10-16T01:15:47;2.30;;;1.70;;
5795;SDS011;2924;51.458;7.046;2022-10-16T01:19:01;3.00;;;1.50;;
5795;SDS011;2924;51.458;7.046;2022-10-16T01:21:33;3.20;;;1.33;;
5795;SDS011;2924;51.458;7.046;2022-10-16T01:32:49;1.83;;;1.00;;
5795;SDS011;2924;51.458;7.046;2022-10-16T01:35:34;8.23;;;1.70;;
5795;SDS011;2924;51.458;7.046;2022-10-16T01:37:59;2.17;;;1.17;;
5795;SDS011;2924;51.458;7.046;2022-10-16T01:40:29;2.17;;;1.60;;
5795;SDS011;2924;51.458;7.046;2022-10-16T01:43:00;6.80;;;1.67;;
5795;SDS011;2924;51.458;7.046;2022-10-16T01:45:29;7.10;;;1.93;;
5795;SDS011;2924;51.458;7.046;2022-10-16T01:47:58;2.90;;;1.47;;
5795;SDS011;2924;51.458;7.046;2022-10-16T01:50:29;1.60;;;1.50;;
5795;SDS011;2924;51.458;7.046;2022-10-16T01:52:58;2.63;;;1.60;;
5795;SDS011;2924;51.458;7.046;2022-10-16T01:55:31;2.40;;;1.10;;
5795;SDS011;2924;51.458;7.046;2022-10-16T01:58:00;2.20;;;1.30;;
5795;SDS011;2924;51.458;7.046;2022-10-16T02:00:30;2.27;;;1.40;;
5795;SDS011;2924;51.458;7.046;2022-10-16T02:02:56;3.73;;;1.47;;
5795;SDS011;2924;51.458;7.046;2022-10-16T02:05:31;1.80;;;1.57;;
5795;SDS011;2924;51.458;7.046;2022-10-16T02:08:16;3.53;;;1.43;;
5795;SDS011;2924;51.458;7.046;2022-10-16T02:10:42;4.93;;;1.80;;
5795;SDS011;2924;51.458;7.046;2022-10-16T02:13:10;1.70;;;1.40;;
5795;SDS011;2924;51.458;7.046;2022-10-16T02:15:45;5.70;;;1.40;;
5795;SDS011;2924;51.458;7.046;2022-10-16T02:18:11;1.37;;;1.30;;
5795;SDS011;2924;51.458;7.046;2022-10-16T02:20:43;1.40;;;1.27;;
5795;SDS011;2924;51.458;7.046;2022-10-16T02:24:04;3.83;;;1.57;;
5795;SDS011;2924;51.458;7.046;2022-10-16T02:26:28;2.63;;;1.20;;
5795;SDS011;2924;51.458;7.046;2022-10-16T02:29:01;3.53;;;1.30;;
5795;SDS011;2924;51.458;7.046;2022-10-16T02:31:32;3.43;;;1.20;;
5795;SDS011;2924;51.458;7.046;2022-10-16T02:34:00;3.33;;;1.40;;
5795;SDS011;2924;51.458;7.046;2022-10-16T02:36:29;1.73;;;1.37;;
5795;SDS011;2924;51.458;7.046;2022-10-16T02:38:57;2.20;;;1.43;;
5795;SDS011;2924;51.458;7.046;2022-10-16T02:41:25;3.20;;;1.63;;
5795;SDS011;2924;51.458;7.046;2022-10-16T02:43:51;1.53;;;1.43;;
5795;SDS011;2924;51.458;7.046;2022-10-16T02:46:17;2.00;;;1.23;;
5795;SDS011;2924;51.458;7.046;2022-10-16T02:48:43;2.03;;;1.07;;
5795;SDS011;2924;51.458;7.046;2022-10-16T02:51:09;1.33;;;1.33;;
5795;SDS011;2924;51.458;7.046;2022-10-16T02:53:35;3.67;;;1.13;;
5795;SDS011;2924;51.458;7.046;2022-10-16T02:56:00;1.00;;;0.90;;
5795;SDS011;2924;51.458;7.046;2022-10-16T02:58:26;2.00;;;0.90;;
5795;SDS011;2924;51.458;7.046;2022-10-16T03:00:52;7.10;;;1.50;;
5795;SDS011;2924;51.458;7.046;2022-10-16T03:03:18;1.23;;;1.00;;
5795;SDS011;2924;51.458;7.046;2022-10-16T03:05:43;1.40;;;1.00;;
5795;SDS011;2924;51.458;7.046;2022-10-16T03:08:11;1.00;;;1.00;;
5795;SDS011;2924;51.458;7.046;2022-10-16T03:10:37;2.97;;;0.80;;
5795;SDS011;2924;51.458;7.046;2022-10-16T03:13:02;0.80;;;0.80;;
5795;SDS011;2924;51.458;7.046;2022-10-16T03:15:28;2.10;;;1.40;;
5795;SDS011;2924;51.458;7.046;2022-10-16T03:17:54;3.27;;;1.07;;
5795;SDS011;2924;51.458;7.046;2022-10-16T03:20:22;0.77;;;0.77;;
5795;SDS011;2924;51.458;7.046;2022-10-16T03:22:48;2.33;;;1.00;;
5795;SDS011;2924;51.458;7.046;2022-10-16T03:25:14;1.00;;;1.00;;
5795;SDS011;2924;51.458;7.046;2022-10-16T03:27:39;1.30;;;1.20;;
5795;SDS011;2924;51.458;7.046;2022-10-16T03:30:05;1.53;;;1.00;;
5795;SDS011;2924;51.458;7.046;2022-10-16T03:32:31;6.83;;;0.80;;
5795;SDS011;2924;51.458;7.046;2022-10-16T03:34:57;6.93;;;2.10;;
5795;SDS011;2924;51.458;7.046;2022-10-16T03:37:23;0.97;;;0.70;;
5795;SDS011;2924;51.458;7.046;2022-10-16T03:39:48;4.63;;;1.30;;
5795;SDS011;2924;51.458;7.046;2022-10-16T03:42:14;0.90;;;0.90;;
5795;SDS011;2924;51.458;7.046;2022-10-16T03:44:40;0.80;;;0.80;;
5795;SDS011;2924;51.458;7.046;2022-10-16T03:47:05;1.70;;;0.90;;
5795;SDS011;2924;51.458;7.046;2022-10-16T03:49:31;1.10;;;1.00;;
5795;SDS011;2924;51.458;7.046;2022-10-16T03:51:57;4.30;;;0.83;;
5795;SDS011;2924;51.458;7.046;2022-10-16T03:54:22;1.47;;;1.27;;
5795;SDS011;2924;51.458;7.046;2022-10-16T03:56:48;7.93;;;1.37;;
5795;SDS011;2924;51.458;7.046;2022-10-16T03:59:13;2.93;;;1.23;;
5795;SDS011;2924;51.458;7.046;2022-10-16T04:01:39;0.80;;;0.70;;
5795;SDS011;2924;51.458;7.046;2022-10-16T04:04:05;1.67;;;1.10;;
5795;SDS011;2924;51.458;7.046;2022-10-16T04:06:31;1.30;;;1.20;;
5795;SDS011;2924;51.458;7.046;2022-10-16T04:08:56;1.57;;;0.93;;
5795;SDS011;2924;51.458;7.046;2022-10-16T04:11:22;0.87;;;0.87;;
5795;SDS011;2924;51.458;7.046;2022-10-16T04:13:48;3.03;;;1.23;;
5795;SDS011;2924;51.458;7.046;2022-10-16T04:16:13;3.00;;;1.00;;
5795;SDS011;2924;51.458;7.046;2022-10-16T04:18:39;3.30;;;1.27;;
5795;SDS011;2924;51.458;7.046;2022-10-16T04:21:05;6.70;;;1.20;;
5795;SDS011;2924;51.458;7.046;2022-10-16T04:23:32;2.03;;;0.93;;
5795;SDS011;2924;51.458;7.046;2022-10-16T04:25:58;2.87;;;1.13;;
5795;SDS011;2924;51.458;7.046;2022-10-16T04:28:24;3.90;;;1.40;;
5795;SDS011;2924;51.458;7.046;2022-10-16T04:30:49;1.67;;;1.07;;
5795;SDS011;2924;51.458;7.046;2022-10-16T04:33:15;1.17;;;1.10;;
5795;SDS011;2924;51.458;7.046;2022-10-16T04:35:41;1.47;;;1.20;;
5795;SDS011;2924;51.458;7.046;2022-10-16T04:38:07;1.13;;;1.00;;
5795;SDS011;2924;51.458;7.046;2022-10-16T04:40:33;3.10;;;1.00;;
5795;SDS011;2924;51.458;7.046;2022-10-16T04:43:01;3.40;;;1.30;;
5795;SDS011;2924;51.458;7.046;2022-10-16T04:45:31;1.00;;;1.00;;
5795;SDS011;2924;51.458;7.046;2022-10-16T04:47:57;1.53;;;1.10;;
5795;SDS011;2924;51.458;7.046;2022-10-16T04:50:23;3.40;;;0.93;;
5795;SDS011;2924;51.458;7.046;2022-10-16T04:52:49;1.30;;;1.20;;
5795;SDS011;2924;51.458;7.046;2022-10-16T04:55:15;10.00;;;1.67;;
5795;SDS011;2924;51.458;7.046;2022-10-16T04:57:40;1.10;;;1.10;;
5795;SDS011;2924;51.458;7.046;2022-10-16T05:00:06;3.80;;;1.53;;
5795;SDS011;2924;51.458;7.046;2022-10-16T05:02:33;4.00;;;1.73;;
5795;SDS011;2924;51.458;7.046;2022-10-16T05:04:59;3.27;;;1.30;;
5795;SDS011;2924;51.458;7.046;2022-10-16T05:07:25;1.47;;;1.03;;
5795;SDS011;2924;51.458;7.046;2022-10-16T05:09:50;2.57;;;1.20;;
5795;SDS011;2924;51.458;7.046;2022-10-16T05:12:16;1.30;;;0.93;;
5795;SDS011;2924;51.458;7.046;2022-10-16T05:14:42;1.37;;;1.27;;
5795;SDS011;2924;51.458;7.046;2022-10-16T05:17:07;1.03;;;1.03;;
5795;SDS011;2924;51.458;7.046;2022-10-16T05:19:33;2.03;;;1.23;;
5795;SDS011;2924;51.458;7.046;2022-10-16T05:21:59;7.40;;;1.10;;
5795;SDS011;2924;51.458;7.046;2022-10-16T05:24:24;1.00;;;1.00;;
5795;SDS011;2924;51.458;7.046;2022-10-16T05:26:50;1.60;;;1.20;;
5795;SDS011;2924;51.458;7.046;2022-10-16T05:29:16;2.10;;;1.10;;
5795;SDS011;2924;51.458;7.046;2022-10-16T05:31:42;1.50;;;1.40;;
5795;SDS011;2924;51.458;7.046;2022-10-16T05:34:07;1.37;;;1.07;;
5795;SDS011;2924;51.458;7.046;2022-10-16T05:36:33;2.03;;;1.00;;
5795;SDS011;2924;51.458;7.046;2022-10-16T05:38:59;2.60;;;1.17;;
5795;SDS011;2924;51.458;7.046;2022-10-16T05:41:24;2.83;;;1.67;;
5795;SDS011;2924;51.458;7.046;2022-10-16T05:43:51;4.30;;;1.00;;
5795;SDS011;2924;51.458;7.046;2022-10-16T05:46:17;1.00;;;1.00;;
5795;SDS011;2924;51.458;7.046;2022-10-16T05:48:43;1.97;;;1.20;;
5795;SDS011;2924;51.458;7.046;2022-10-16T05:51:10;1.47;;;1.10;;
5795;SDS011;2924;51.458;7.046;2022-10-16T05:53:37;6.53;;;1.43;;
5795;SDS011;2924;51.458;7.046;2022-10-16T05:56:04;2.63;;;1.20;;
5795;SDS011;2924;51.458;7.046;2022-10-16T05:58:32;3.67;;;1.00;;
5795;SDS011;2924;51.458;7.046;2022-10-16T06:01:00;1.23;;;1.13;;
5795;SDS011;2924;51.458;7.046;2022-10-16T06:03:30;1.40;;;1.30;;
5795;SDS011;2924;51.458;7.046;2022-10-16T06:05:56;2.30;;;1.30;;
5795;SDS011;2924;51.458;7.046;2022-10-16T06:08:22;3.50;;;1.13;;
5795;SDS011;2924;51.458;7.046;2022-10-16T06:10:48;2.10;;;1.13;;
5795;SDS011;2924;51.458;7.046;2022-10-16T06:13:24;2.43;;;1.73;;
5795;SDS011;2924;51.458;7.046;2022-10-16T06:15:50;5.60;;;1.70;;
5795;SDS011;2924;51.458;7.046;2022-10-16T06:18:15;4.20;;;0.90;;
5795;SDS011;2924;51.458;7.046;2022-10-16T06:20:41;4.43;;;1.20;;
5795;SDS011;2924;51.458;7.046;2022-10-16T06:23:07;1.03;;;1.03;;
5795;SDS011;2924;51.458;7.046;2022-10-16T06:25:33;1.93;;;1.80;;
5795;SDS011;2924;51.458;7.046;2022-10-16T06:27:58;2.30;;;1.37;;
5795;SDS011;2924;51.458;7.046;2022-10-16T06:30:24;1.27;;;1.17;;
5795;SDS011;2924;51.458;7.046;2022-10-16T06:32:50;2.37;;;1.20;;
5795;SDS011;2924;51.458;7.046;2022-10-16T06:35:15;2.63;;;1.80;;
5795;SDS011;2924;51.458;7.046;2022-10-16T06:37:41;1.87;;;1.43;;
5795;SDS011;2924;51.458;7.046;2022-10-16T06:40:07;1.93;;;1.67;;
5795;SDS011;2924;51.458;7.046;2022-10-16T06:42:33;4.17;;;1.20;;
5795;SDS011;2924;51.458;7.046;2022-10-16T06:44:58;1.47;;;1.10;;
5795;SDS011;2924;51.458;7.046;2022-10-16T06:47:24;4.63;;;1.10;;
5795;SDS011;2924;51.458;7.046;2022-10-16T06:49:50;1.30;;;1.20;;
5795;SDS011;2924;51.458;7.046;2022-10-16T06:52:15;3.33;;;1.30;;
5795;SDS011;2924;51.458;7.046;2022-10-16T06:54:41;8.37;;;1.63;;
5795;SDS011;2924;51.458;7.046;2022-10-16T06:57:06;2.60;;;1.20;;
5795;SDS011;2924;51.458;7.046;2022-10-16T06:59:32;1.97;;;1.30;;
5795;SDS011;2924;51.458;7.046;2022-10-16T07:01:58;1.13;;;0.90;;
5795;SDS011;2924;51.458;7.046;2022-10-16T07:04:23;2.93;;;1.30;;
5795;SDS011;2924;51.458;7.046;2022-10-16T07:06:49;3.73;;;1.50;;
5795;SDS011;2924;51.458;7.046;2022-10-16T07:09:16;1.17;;;1.10;;
5795;SDS011;2924;51.458;7.046;2022-10-16T07:11:42;11.27;;;1.60;;
5795;SDS011;2924;51.458;7.046;2022-10-16T07:14:18;1.07;;;1.07;;
5795;SDS011;2924;51.458;7.046;2022-10-16T07:16:45;1.40;;;1.13;;
5795;SDS011;2924;51.458;7.046;2022-10-16T07:19:11;5.27;;;1.73;;
5795;SDS011;2924;51.458;7.046;2022-10-16T07:21:40;2.47;;;1.23;;
5795;SDS011;2924;51.458;7.046;2022-10-16T07:24:07;1.97;;;1.30;;
5795;SDS011;2924;51.458;7.046;2022-10-16T07:26:38;2.10;;;1.00;;
5795;SDS011;2924;51.458;7.046;2022-10-16T07:29:04;2.40;;;0.90;;
5795;SDS011;2924;51.458;7.046;2022-10-16T07:31:41;3.37;;;0.90;;
5795;SDS011;2924;51.458;7.046;2022-10-16T07:34:07;2.30;;;1.53;;
5795;SDS011;2924;51.458;7.046;2022-10-16T07:36:34;3.77;;;1.60;;
5795;SDS011;2924;51.458;7.046;2022-10-16T07:38:59;4.07;;;1.57;;
5795;SDS011;2924;51.458;7.046;2022-10-16T07:41:25;11.23;;;1.23;;
5795;SDS011;2924;51.458;7.046;2022-10-16T07:43:52;3.47;;;1.23;;
5795;SDS011;2924;51.458;7.046;2022-10-16T07:46:18;0.83;;;0.67;;
5795;SDS011;2924;51.458;7.046;2022-10-16T07:48:45;1.40;;;1.20;;
5795;SDS011;2924;51.458;7.046;2022-10-16T07:51:13;4.00;;;1.20;;
5795;SDS011;2924;51.458;7.046;2022-10-16T07:53:40;2.10;;;0.83;;
5795;SDS011;2924;51.458;7.046;2022-10-16T07:56:06;1.33;;;1.00;;
5795;SDS011;2924;51.458;7.046;2022-10-16T07:58:33;3.70;;;1.57;;
5795;SDS011;2924;51.458;7.046;2022-10-16T08:01:05;2.40;;;0.90;;
5795;SDS011;2924;51.458;7.046;2022-10-16T08:03:32;1.37;;;0.87;;
5795;SDS011;2924;51.458;7.046;2022-10-16T08:05:58;3.80;;;1.10;;
5795;SDS011;2924;51.458;7.046;2022-10-16T08:08:25;4.50;;;1.20;;
5795;SDS011;2924;51.458;7.046;2022-10-16T08:10:51;0.93;;;0.87;;
5795;SDS011;2924;51.458;7.046;2022-10-16T08:13:17;1.57;;;1.00;;
5795;SDS011;2924;51.458;7.046;2022-10-16T08:15:43;1.03;;;0.80;;
5795;SDS011;2924;51.458;7.046;2022-10-16T08:18:10;1.97;;;0.90;;
5795;SDS011;2924;51.458;7.046;2022-10-16T08:20:37;3.17;;;1.37;;
5795;SDS011;2924;51.458;7.046;2022-10-16T08:23:04;1.00;;;0.90;;
5795;SDS011;2924;51.458;7.046;2022-10-16T08:25:29;1.67;;;0.90;;
5795;SDS011;2924;51.458;7.046;2022-10-16T08:27:55;0.70;;;0.70;;
5795;SDS011;2924;51.458;7.046;2022-10-16T08:30:22;1.77;;;1.00;;
5795;SDS011;2924;51.458;7.046;2022-10-16T08:32:48;3.17;;;0.80;;
5795;SDS011;2924;51.458;7.046;2022-10-16T08:35:15;1.37;;;0.93;;
5795;SDS011;2924;51.458;7.046;2022-10-16T08:37:41;1.63;;;0.83;;
5795;SDS011;2924;51.458;7.046;2022-10-16T08:40:13;1.47;;;1.00;;
5795;SDS011;2924;51.458;7.046;2022-10-16T08:42:49;1.00;;;0.90;;
5795;SDS011;2924;51.458;7.046;2022-10-16T08:51:03;2.97;;;1.00;;
5795;SDS011;2924;51.458;7.046;2022-10-16T08:53:37;1.00;;;0.70;;
5795;SDS011;2924;51.458;7.046;2022-10-16T08:56:08;1.70;;;0.70;;
5795;SDS011;2924;51.458;7.046;2022-10-16T08:58:34;1.77;;;0.70;;
5795;SDS011;2924;51.458;7.046;2022-10-16T09:01:03;5.40;;;1.17;;
5795;SDS011;2924;51.458;7.046;2022-10-16T09:06:23;2.93;;;0.80;;
5795;SDS011;2924;51.458;7.046;2022-10-16T09:09:04;3.03;;;0.70;;
5795;SDS011;2924;51.458;7.046;2022-10-16T09:16:56;3.93;;;1.00;;
5795;SDS011;2924;51.458;7.046;2022-10-16T09:21:59;5.27;;;0.97;;
5795;SDS011;2924;51.458;7.046;2022-10-16T09:24:27;4.00;;;0.50;;
5795;SDS011;2924;51.458;7.046;2022-10-16T09:26:52;2.03;;;0.70;;
5795;SDS011;2924;51.458;7.046;2022-10-16T09:29:19;6.30;;;0.80;;
5795;SDS011;2924;51.458;7.046;2022-10-16T09:31:46;5.97;;;0.80;;
5795;SDS011;2924;51.458;7.046;2022-10-16T09:37:03;1.40;;;0.60;;
5795;SDS011;2924;51.458;7.046;2022-10-16T09:39:55;3.70;;;0.70;;
5795;SDS011;2924;51.458;7.046;2022-10-16T09:42:20;2.77;;;0.70;;
5795;SDS011;2924;51.458;7.046;2022-10-16T09:44:50;0.70;;;0.60;;
5795;SDS011;2924;51.458;7.046;2022-10-16T09:47:19;0.90;;;0.70;;
5795;SDS011;2924;51.458;7.046;2022-10-16T09:52:23;2.50;;;1.10;;
5795;SDS011;2924;51.458;7.046;2022-10-16T09:57:19;2.47;;;0.80;;
5795;SDS011;2924;51.458;7.046;2022-10-16T10:00:04;4.97;;;1.00;;
5795;SDS011;2924;51.458;7.046;2022-10-16T10:02:34;3.33;;;1.03;;
5795;SDS011;2924;51.458;7.046;2022-10-16T10:05:03;4.33;;;1.07;;
5795;SDS011;2924;51.458;7.046;2022-10-16T10:07:32;5.17;;;1.10;;
5795;SDS011;2924;51.458;7.046;2022-10-16T10:10:01;4.27;;;0.60;;
5795;SDS011;2924;51.458;7.046;2022-10-16T10:12:29;1.63;;;0.87;;
5795;SDS011;2924;51.458;7.046;2022-10-16T10:15:11;0.90;;;0.63;;
5795;SDS011;2924;51.458;7.046;2022-10-16T10:17:52;4.80;;;0.80;;
5795;SDS011;2924;51.458;7.046;2022-10-16T10:22:51;4.47;;;1.20;;
5795;SDS011;2924;51.458;7.046;2022-10-16T10:36:25;3.70;;;1.10;;
5795;SDS011;2924;51.458;7.046;2022-10-16T10:39:46;2.57;;;0.87;;
5795;SDS011;2924;51.458;7.046;2022-10-16T10:47:52;4.03;;;0.70;;
5795;SDS011;2924;51.458;7.046;2022-10-16T10:50:26;1.13;;;0.90;;
5795;SDS011;2924;51.458;7.046;2022-10-16T10:56:00;5.50;;;0.80;;
5795;SDS011;2924;51.458;7.046;2022-10-16T10:59:01;4.50;;;0.80;;
5795;SDS011;2924;51.458;7.046;2022-10-16T11:01:48;1.67;;;0.80;;
5795;SDS011;2924;51.458;7.046;2022-10-16T11:04:34;2.20;;;0.70;;
5795;SDS011;2924;51.458;7.046;2022-10-16T11:07:32;3.67;;;0.97;;
5795;SDS011;2924;51.458;7.046;2022-10-16T11:10:04;10.77;;;1.10;;
5795;SDS011;2924;51.458;7.046;2022-10-16T11:12:39;1.90;;;0.60;;
5795;SDS011;2924;51.458;7.046;2022-10-16T11:15:36;6.93;;;0.80;;
5795;SDS011;2924;51.458;7.046;2022-10-16T11:20:42;1.90;;;0.70;;
5795;SDS011;2924;51.458;7.046;2022-10-16T11:26:08;5.20;;;1.30;;
5795;SDS011;2924;51.458;7.046;2022-10-16T11:28:42;2.40;;;1.00;;
5795;SDS011;2924;51.458;7.046;2022-10-16T11:36:53;2.10;;;0.60;;
5795;SDS011;2924;51.458;7.046;2022-10-16T11:39:34;1.37;;;0.93;;
5795;SDS011;2924;51.458;7.046;2022-10-16T11:47:42;1.63;;;0.77;;
5795;SDS011;2924;51.458;7.046;2022-10-16T11:55:42;9.43;;;1.00;;
5795;SDS011;2924;51.458;7.046;2022-10-16T11:58:13;4.00;;;1.00;;
5795;SDS011;2924;51.458;7.046;2022-10-16T12:00:47;2.53;;;0.67;;
5795;SDS011;2924;51.458;7.046;2022-10-16T12:09:21;3.27;;;0.90;;
5795;SDS011;2924;51.458;7.046;2022-10-16T12:11:53;4.47;;;0.97;;
5795;SDS011;2924;51.458;7.046;2022-10-16T12:17:03;1.73;;;0.60;;
5795;SDS011;2924;51.458;7.046;2022-10-16T12:19:44;2.40;;;1.03;;
5795;SDS011;2924;51.458;7.046;2022-10-16T12:22:21;3.20;;;0.80;;
5795;SDS011;2924;51.458;7.046;2022-10-16T12:24:50;4.40;;;0.90;;
5795;SDS011;2924;51.458;7.046;2022-10-16T12:27:24;6.43;;;1.03;;
5795;SDS011;2924;51.458;7.046;2022-10-16T12:30:03;1.73;;;0.80;;
5795;SDS011;2924;51.458;7.046;2022-10-16T12:32:34;0.77;;;0.50;;
5795;SDS011;2924;51.458;7.046;2022-10-16T12:35:02;6.80;;;0.80;;
5795;SDS011;2924;51.458;7.046;2022-10-16T12:37:34;0.87;;;0.50;;
5795;SDS011;2924;51.458;7.046;2022-10-16T12:42:46;6.77;;;0.97;;
5795;SDS011;2924;51.458;7.046;2022-10-16T12:45:26;2.50;;;1.10;;
5795;SDS011;2924;51.458;7.046;2022-10-16T12:47:56;2.77;;;0.70;;
5795;SDS011;2924;51.458;7.046;2022-10-16T12:52:59;3.17;;;0.77;;
5795;SDS011;2924;51.458;7.046;2022-10-16T12:55:26;7.63;;;0.87;;
5795;SDS011;2924;51.458;7.046;2022-10-16T13:00:58;2.63;;;0.77;;
5795;SDS011;2924;51.458;7.046;2022-10-16T13:04:13;3.60;;;0.77;;
5795;SDS011;2924;51.458;7.046;2022-10-16T13:12:42;2.93;;;0.50;;
5795;SDS011;2924;51.458;7.046;2022-10-16T13:20:28;2.30;;;0.93;;
5795;SDS011;2924;51.458;7.046;2022-10-16T13:23:17;2.53;;;0.70;;
5795;SDS011;2924;51.458;7.046;2022-10-16T13:26:28;3.50;;;0.90;;
5795;SDS011;2924;51.458;7.046;2022-10-16T13:29:14;1.83;;;0.90;;
5795;SDS011;2924;51.458;7.046;2022-10-16T13:31:40;2.60;;;0.80;;
5795;SDS011;2924;51.458;7.046;2022-10-16T13:34:10;3.13;;;0.83;;
5795;SDS011;2924;51.458;7.046;2022-10-16T13:36:46;3.53;;;0.67;;
5795;SDS011;2924;51.458;7.046;2022-10-16T13:44:31;2.40;;;1.80;;
5795;SDS011;2924;51.458;7.046;2022-10-16T13:47:19;2.23;;;0.77;;
5795;SDS011;2924;51.458;7.046;2022-10-16T13:49:59;2.00;;;0.87;;
5795;SDS011;2924;51.458;7.046;2022-10-16T13:52:36;3.50;;;0.93;;
5795;SDS011;2924;51.458;7.046;2022-10-16T13:55:04;0.90;;;0.60;;
5795;SDS011;2924;51.458;7.046;2022-10-16T13:57:35;1.73;;;0.50;;
5795;SDS011;2924;51.458;7.046;2022-10-16T14:00:00;2.50;;;0.50;;
5795;SDS011;2924;51.458;7.046;2022-10-16T14:02:27;1.80;;;0.93;;
5795;SDS011;2924;51.458;7.046;2022-10-16T14:05:00;2.33;;;0.60;;
5795;SDS011;2924;51.458;7.046;2022-10-16T14:07:28;1.43;;;0.70;;
5795;SDS011;2924;51.458;7.046;2022-10-16T14:09:58;3.83;;;0.80;;
5795;SDS011;2924;51.458;7.046;2022-10-16T14:12:43;2.10;;;0.90;;
5795;SDS011;2924;51.458;7.046;2022-10-16T14:15:18;4.03;;;1.07;;
5795;SDS011;2924;51.458;7.046;2022-10-16T14:17:45;3.50;;;0.70;;
5795;SDS011;2924;51.458;7.046;2022-10-16T14:20:15;1.90;;;0.80;;
5795;SDS011;2924;51.458;7.046;2022-10-16T14:22:41;6.43;;;0.70;;
5795;SDS011;2924;51.458;7.046;2022-10-16T14:28:01;2.30;;;1.03;;
5795;SDS011;2924;51.458;7.046;2022-10-16T14:30:29;3.30;;;1.27;;
5795;SDS011;2924;51.458;7.046;2022-10-16T14:33:01;5.47;;;1.03;;
5795;SDS011;2924;51.458;7.046;2022-10-16T14:35:30;4.83;;;0.90;;
5795;SDS011;2924;51.458;7.046;2022-10-16T14:38:02;2.10;;;0.80;;
5795;SDS011;2924;51.458;7.046;2022-10-16T14:40:32;3.83;;;0.67;;
5795;SDS011;2924;51.458;7.046;2022-10-16T14:43:00;1.27;;;0.70;;
5795;SDS011;2924;51.458;7.046;2022-10-16T14:45:27;3.20;;;0.70;;
5795;SDS011;2924;51.458;7.046;2022-10-16T14:48:02;0.80;;;0.80;;
5795;SDS011;2924;51.458;7.046;2022-10-16T14:50:31;0.80;;;0.80;;
5795;SDS011;2924;51.458;7.046;2022-10-16T14:52:56;3.97;;;1.13;;
5795;SDS011;2924;51.458;7.046;2022-10-16T14:55:23;3.20;;;0.87;;
5795;SDS011;2924;51.458;7.046;2022-10-16T14:57:50;3.17;;;0.60;;
5795;SDS011;2924;51.458;7.046;2022-10-16T15:00:20;4.33;;;0.70;;
5795;SDS011;2924;51.458;7.046;2022-10-16T15:02:48;5.80;;;0.90;;
5795;SDS011;2924;51.458;7.046;2022-10-16T15:05:21;2.20;;;0.90;;
5795;SDS011;2924;51.458;7.046;2022-10-16T15:07:49;7.30;;;1.07;;
5795;SDS011;2924;51.458;7.046;2022-10-16T15:10:16;3.77;;;1.10;;
5795;SDS011;2924;51.458;7.046;2022-10-16T15:12:42;3.47;;;1.17;;
5795;SDS011;2924;51.458;7.046;2022-10-16T15:15:53;2.90;;;1.30;;
5795;SDS011;2924;51.458;7.046;2022-10-16T15:17:55;4.67;;;1.77;;
5795;SDS011;2924;51.458;7.046;2022-10-16T15:20:25;2.50;;;1.53;;
5795;SDS011;2924;51.458;7.046;2022-10-16T15:22:56;5.47;;;1.63;;
5795;SDS011;2924;51.458;7.046;2022-10-16T15:28:04;9.37;;;1.47;;
5795;SDS011;2924;51.458;7.046;2022-10-16T15:30:30;2.40;;;1.30;;
5795;SDS011;2924;51.458;7.046;2022-10-16T15:32:56;0.97;;;0.87;;
5795;SDS011;2924;51.458;7.046;2022-10-16T15:35:22;5.37;;;1.30;;
5795;SDS011;2924;51.458;7.046;2022-10-16T15:37:48;4.17;;;1.23;;
5795;SDS011;2924;51.458;7.046;2022-10-16T15:40:14;1.70;;;1.33;;
5795;SDS011;2924;51.458;7.046;2022-10-16T15:42:41;1.23;;;0.87;;
5795;SDS011;2924;51.458;7.046;2022-10-16T15:45:08;2.20;;;1.30;;
5795;SDS011;2924;51.458;7.046;2022-10-16T15:47:34;5.20;;;0.97;;
5795;SDS011;2924;51.458;7.046;2022-10-16T15:50:00;2.50;;;1.10;;
5795;SDS011;2924;51.458;7.046;2022-10-16T15:52:25;1.67;;;1.10;;
5795;SDS011;2924;51.458;7.046;2022-10-16T15:54:51;5.00;;;0.90;;
5795;SDS011;2924;51.458;7.046;2022-10-16T15:57:17;2.20;;;1.07;;
5795;SDS011;2924;51.458;7.046;2022-10-16T15:59:43;2.33;;;0.73;;
5795;SDS011;2924;51.458;7.046;2022-10-16T16:02:08;1.90;;;0.90;;
5795;SDS011;2924;51.458;7.046;2022-10-16T16:04:34;1.20;;;1.10;;
5795;SDS011;2924;51.458;7.046;2022-10-16T16:07:00;3.17;;;1.43;;
5795;SDS011;2924;51.458;7.046;2022-10-16T16:09:28;1.43;;;1.10;;
5795;SDS011;2924;51.458;7.046;2022-10-16T16:11:54;3.50;;;1.20;;
5795;SDS011;2924;51.458;7.046;2022-10-16T16:14:20;3.27;;;1.30;;
5795;SDS011;2924;51.458;7.046;2022-10-16T16:16:46;6.00;;;1.37;;
5795;SDS011;2924;51.458;7.046;2022-10-16T16:19:12;2.17;;;1.20;;
5795;SDS011;2924;51.458;7.046;2022-10-16T16:21:37;5.03;;;1.57;;
5795;SDS011;2924;51.458;7.046;2022-10-16T16:24:03;5.67;;;2.07;;
5795;SDS011;2924;51.458;7.046;2022-10-16T16:26:33;2.40;;;1.60;;
5795;SDS011;2924;51.458;7.046;2022-10-16T16:29:01;7.97;;;1.83;;
5795;SDS011;2924;51.458;7.046;2022-10-16T16:31:29;2.20;;;1.50;;
5795;SDS011;2924;51.458;7.046;2022-10-16T16:33:56;5.63;;;1.63;;
5795;SDS011;2924;51.458;7.046;2022-10-16T16:36:23;6.20;;;2.10;;
5795;SDS011;2924;51.458;7.046;2022-10-16T16:38:49;3.33;;;2.40;;
5795;SDS011;2924;51.458;7.046;2022-10-16T16:41:16;4.03;;;2.27;;
5795;SDS011;2924;51.458;7.046;2022-10-16T16:43:44;3.50;;;2.43;;
5795;SDS011;2924;51.458;7.046;2022-10-16T16:46:10;3.47;;;2.10;;
5795;SDS011;2924;51.458;7.046;2022-10-16T16:48:37;5.30;;;1.70;;
5795;SDS011;2924;51.458;7.046;2022-10-16T16:51:07;8.30;;;2.80;;
5795;SDS011;2924;51.458;7.046;2022-10-16T16:53:35;2.60;;;1.57;;
5795;SDS011;2924;51.458;7.046;2022-10-16T16:56:04;3.17;;;1.97;;
5795;SDS011;2924;51.458;7.046;2022-10-16T16:58:31;2.67;;;2.00;;
5795;SDS011;2924;51.458;7.046;2022-10-16T17:00:57;4.43;;;1.90;;
5795;SDS011;2924;51.458;7.046;2022-10-16T17:03:30;5.07;;;2.00;;
5795;SDS011;2924;51.458;7.046;2022-10-16T17:08:24;3.80;;;1.97;;
5795;SDS011;2924;51.458;7.046;2022-10-16T17:10:49;5.13;;;2.30;;
5795;SDS011;2924;51.458;7.046;2022-10-16T17:13:18;5.10;;;1.73;;
5795;SDS011;2924;51.458;7.046;2022-10-16T17:15:48;5.30;;;2.10;;
5795;SDS011;2924;51.458;7.046;2022-10-16T17:18:14;7.50;;;2.00;;
5795;SDS011;2924;51.458;7.046;2022-10-16T17:20:41;5.20;;;2.40;;
5795;SDS011;2924;51.458;7.046;2022-10-16T17:23:07;1.93;;;1.73;;
5795;SDS011;2924;51.458;7.046;2022-10-16T17:25:36;5.30;;;2.27;;
5795;SDS011;2924;51.458;7.046;2022-10-16T17:28:02;3.07;;;1.93;;
5795;SDS011;2924;51.458;7.046;2022-10-16T17:30:28;4.60;;;2.13;;